Fisterra (A Coruña), Galicia

latitud = 42° 55' 29''N | longitud = 009° 17' 29''W
230 metros sobre el nivel del mar | datos mensuales

Fecha, hora, temperatura, viento dirección y velocidad, humedad y presión.

  • 21-06-2018 22:00:00 | 16.60°C | Norte |23.00 km/h | 89.00% | 990.70 hPa
  • 21-06-2018 21:00:00 | 17.20°C | Nordeste |36.00 km/h | 88.00% | 991.10 hPa
  • 21-06-2018 20:00:00 | 18.30°C | Nordeste |35.00 km/h | 83.00% | 991.30 hPa
  • 21-06-2018 19:00:00 | 20.10°C | Nordeste |24.00 km/h | 78.00% | 991.50 hPa
  • 21-06-2018 18:00:00 | 21.00°C | Nordeste |28.00 km/h | 77.00% | 991.20 hPa
  • 21-06-2018 17:00:00 | 21.40°C | Nordeste |31.00 km/h | 75.00% | 991.30 hPa
  • 21-06-2018 16:00:00 | 22.70°C | Nordeste |24.00 km/h | 72.00% | 991.70 hPa
  • 21-06-2018 15:00:00 | 21.10°C | Nordeste |22.00 km/h | 78.00% | 992.50 hPa
  • 21-06-2018 14:00:00 | 22.00°C | Nordeste |14.00 km/h | 77.00% | 993.00 hPa
  • 21-06-2018 13:00:00 | 22.30°C | Este |6.00 km/h | 76.00% | 993.20 hPa
  • 21-06-2018 12:00:00 | 22.90°C | Este |16.00 km/h | 73.00% | 992.60 hPa
  • 21-06-2018 11:00:00 | 20.30°C | Este |32.00 km/h | 79.00% | 991.70 hPa
  • 21-06-2018 10:00:00 | 19.50°C | Este |31.00 km/h | 81.00% | 991.10 hPa
  • 21-06-2018 09:00:00 | 18.90°C | Este |32.00 km/h | 82.00% | 990.70 hPa
  • 21-06-2018 08:00:00 | 17.80°C | Este |42.00 km/h | 86.00% | 989.90 hPa
  • 21-06-2018 07:00:00 | 16.90°C | Nordeste |30.00 km/h | 91.00% | 990.10 hPa
  • 21-06-2018 06:00:00 | 17.00°C | Nordeste |39.00 km/h | 89.00% | 989.60 hPa
  • 21-06-2018 05:00:00 | 19.20°C | Este |39.00 km/h | 79.00% | 989.60 hPa
  • 21-06-2018 04:00:00 | 17.00°C | Este |42.00 km/h | 91.00% | 989.40 hPa
  • 21-06-2018 03:00:00 | 17.90°C | Este |31.00 km/h | 87.00% | 989.90 hPa
  • 21-06-2018 02:00:00 | 17.40°C | Este |28.00 km/h | 91.00% | 990.80 hPa
  • 21-06-2018 01:00:00 | 17.70°C | Este |25.00 km/h | 89.00% | 991.40 hPa
  • 21-06-2018 00:00:00 | 19.10°C | Este |25.00 km/h | 82.00% | 991.50 hPa
  • 20-06-2018 23:00:00 | 18.30°C | Este |29.00 km/h | 85.00% | 990.80 hPa